Time;durP1;ratioP1;P1;durP2;ratioP2;P2;SDS_P1;SDS_P2;PMS_P1;PMS_P2;Temp;Humidity;BMP_temperature;BMP_pressure;BME280_temperature;BME280_humidity;BME280_pressure;Samples;Min_cycle;Max_cycle;Signal;HPM_P1;HPM_P2
2024/01/27 00:01:40;;;;;;;22.17;15.02;;;3.50;99.90;;;;;;5049829;28;20145;-82
2024/01/27 00:04:05;;;;;;;19.30;15.00;;;3.50;99.90;;;;;;5068468;28;20037;-82
2024/01/27 00:06:31;;;;;;;25.42;14.43;;;3.50;99.90;;;;;;5053461;28;20098;-82
2024/01/27 00:08:57;;;;;;;27.23;15.85;;;3.50;99.90;;;;;;5049197;28;20148;-82
2024/01/27 00:11:24;;;;;;;18.35;16.27;;;3.50;99.90;;;;;;5067399;28;20052;-82
2024/01/27 00:13:50;;;;;;;23.05;16.10;;;3.60;99.90;;;;;;5053585;28;20385;-82
2024/01/27 00:16:15;;;;;;;26.10;17.25;;;3.60;99.90;;;;;;5071789;28;20040;-82
2024/01/27 00:18:41;;;;;;;21.88;17.60;;;3.70;99.90;;;;;;5036211;28;20036;-82
2024/01/27 00:21:07;;;;;;;24.73;16.38;;;3.80;99.90;;;;;;5036819;28;20521;-82
2024/01/27 00:23:34;;;;;;;21.00;15.50;;;3.70;99.90;;;;;;5050813;28;20051;-82
2024/01/27 00:26:00;;;;;;;27.65;16.40;;;3.70;99.90;;;;;;5049263;28;20045;-82
2024/01/27 00:28:25;;;;;;;27.63;16.50;;;3.60;99.90;;;;;;5066323;28;20399;-82
2024/01/27 00:30:51;;;;;;;23.63;16.02;;;3.60;99.90;;;;;;5065082;28;20127;-82
2024/01/27 00:33:17;;;;;;;20.35;16.30;;;3.50;99.90;;;;;;5036778;28;20055;-82
2024/01/27 00:35:43;;;;;;;22.05;15.25;;;3.50;99.90;;;;;;5034457;28;20024;-82
2024/01/27 00:38:08;;;;;;;23.38;15.93;;;3.40;99.90;;;;;;5033197;28;20036;-82
2024/01/27 00:40:34;;;;;;;25.60;16.30;;;3.40;99.90;;;;;;5048042;28;20040;-82
2024/01/27 00:43:02;;;;;;;21.95;15.65;;;3.40;99.90;;;;;;5035479;28;20041;-82
2024/01/27 00:45:28;;;;;;;26.15;17.10;;;3.40;99.90;;;;;;5051649;28;20358;-82
2024/01/27 00:47:54;;;;;;;20.67;16.02;;;3.50;99.90;;;;;;5071329;28;20389;-82
2024/01/27 00:50:19;;;;;;;19.50;16.30;;;3.60;99.90;;;;;;5052384;28;20040;-82
2024/01/27 00:52:45;;;;;;;21.50;16.02;;;3.60;99.90;;;;;;5034457;28;20070;-82
2024/01/27 00:55:11;;;;;;;24.98;16.63;;;3.60;99.90;;;;;;5035212;28;20836;-82
2024/01/27 00:57:38;;;;;;;27.95;14.68;;;3.60;99.90;;;;;;5036114;28;20542;-82
2024/01/27 01:00:06;;;;;;;21.65;15.00;;;3.50;99.90;;;;;;5028606;28;20090;-82
2024/01/27 01:02:32;;;;;;;27.92;16.48;;;3.50;99.90;;;;;;5031617;28;20049;-82
2024/01/27 01:04:58;;;;;;;23.80;16.33;;;3.40;99.90;;;;;;5069204;28;20037;-82
2024/01/27 01:07:23;;;;;;;21.63;15.55;;;3.40;99.90;;;;;;5053150;28;20048;-82
2024/01/27 01:09:49;;;;;;;24.23;15.57;;;3.40;99.90;;;;;;5036272;28;20043;-82
2024/01/27 01:12:15;;;;;;;26.38;15.38;;;3.40;99.90;;;;;;5065935;28;20040;-82
2024/01/27 01:14:41;;;;;;;24.20;16.10;;;3.50;99.90;;;;;;5052187;28;20044;-83
2024/01/27 01:17:07;;;;;;;26.30;17.00;;;3.50;99.90;;;;;;5069754;28;20028;-82
2024/01/27 01:19:32;;;;;;;22.75;16.60;;;3.60;99.90;;;;;;5044840;28;20103;-83
2024/01/27 01:21:58;;;;;;;18.60;15.90;;;3.60;99.90;;;;;;5031145;28;20048;-82
2024/01/27 01:24:23;;;;;;;27.13;15.13;;;3.60;99.90;;;;;;5052761;28;20553;-82
2024/01/27 01:26:49;;;;;;;21.30;15.82;;;3.60;99.90;;;;;;5034623;28;20520;-82
2024/01/27 01:29:16;;;;;;;24.02;16.77;;;3.60;99.90;;;;;;5034659;28;20546;-82
2024/01/27 01:31:45;;;;;;;21.38;16.00;;;3.60;99.90;;;;;;5033278;28;20159;-82
2024/01/27 01:34:10;;;;;;;21.30;15.23;;;3.50;99.90;;;;;;5052294;28;20036;-82
2024/01/27 01:36:37;;;;;;;19.25;14.82;;;3.50;99.90;;;;;;5069917;28;20461;-82
2024/01/27 01:39:03;;;;;;;21.38;15.48;;;3.40;99.90;;;;;;5052004;28;20044;-82
2024/01/27 01:41:28;;;;;;;25.92;15.43;;;3.40;99.90;;;;;;5052201;28;20106;-82
2024/01/27 01:43:54;;;;;;;25.55;17.33;;;3.30;99.90;;;;;;5035241;28;20471;-82
2024/01/27 01:46:23;;;;;;;21.17;15.05;;;3.30;99.90;;;;;;5050676;28;20033;-82
2024/01/27 01:48:49;;;;;;;28.33;16.20;;;3.20;99.90;;;;;;5035443;28;20047;-82
2024/01/27 01:51:16;;;;;;;25.73;16.10;;;3.20;99.90;;;;;;5041641;28;20112;-82
2024/01/27 01:53:43;;;;;;;18.48;14.95;;;3.10;99.90;;;;;;5030995;28;20048;-82
2024/01/27 01:56:09;;;;;;;21.98;16.05;;;3.10;99.90;;;;;;5048425;28;20118;-82
2024/01/27 01:58:35;;;;;;;25.77;15.85;;;3.10;99.90;;;;;;5050618;28;20040;-82
2024/01/27 02:01:01;;;;;;;22.38;16.98;;;3.10;99.90;;;;;;5032534;28;20047;-82
2024/01/27 02:03:27;;;;;;;23.38;16.40;;;3.00;99.90;;;;;;5045389;28;20041;-82
2024/01/27 02:05:53;;;;;;;22.30;15.13;;;3.00;99.90;;;;;;5061312;28;20044;-82
2024/01/27 02:08:18;;;;;;;22.73;14.95;;;3.00;99.90;;;;;;5050541;28;20037;-82
2024/01/27 02:10:45;;;;;;;25.63;17.10;;;3.00;99.90;;;;;;5030239;28;20052;-83
2024/01/27 02:13:22;;;;;;;21.67;15.50;;;2.90;99.90;;;;;;5043127;28;20037;-82
2024/01/27 02:15:49;;;;;;;21.25;15.65;;;2.90;99.90;;;;;;5066532;28;20058;-82
2024/01/27 02:18:15;;;;;;;21.35;15.57;;;2.80;99.90;;;;;;5042693;28;20037;-82
2024/01/27 02:20:41;;;;;;;29.70;15.38;;;2.80;99.90;;;;;;5066414;28;20052;-82
2024/01/27 02:23:06;;;;;;;26.60;15.23;;;2.80;99.90;;;;;;5050197;28;20102;-82
2024/01/27 02:25:33;;;;;;;24.52;15.23;;;2.70;99.90;;;;;;5027697;28;20492;-82
2024/01/27 02:27:58;;;;;;;22.83;15.60;;;2.80;99.90;;;;;;5034984;28;20076;-82
2024/01/27 02:30:24;;;;;;;20.30;16.23;;;2.80;99.90;;;;;;5050326;28;20485;-83
2024/01/27 02:32:51;;;;;;;28.80;17.63;;;2.80;99.90;;;;;;5033193;28;20463;-82
2024/01/27 02:35:16;;;;;;;22.52;16.05;;;2.80;99.90;;;;;;5043356;28;20051;-82
2024/01/27 02:37:42;;;;;;;21.70;16.83;;;2.80;99.90;;;;;;5049180;28;20501;-82
2024/01/27 02:40:11;;;;;;;23.17;17.15;;;2.70;99.90;;;;;;5034317;28;20040;-83
2024/01/27 02:42:37;;;;;;;25.40;17.83;;;2.80;99.90;;;;;;5063450;28;20447;-82
2024/01/27 02:45:04;;;;;;;26.50;17.80;;;2.80;99.90;;;;;;5048801;28;20044;-82
2024/01/27 02:47:30;;;;;;;23.35;16.98;;;2.80;99.90;;;;;;5028867;28;20040;-82
2024/01/27 02:49:55;;;;;;;30.25;17.95;;;2.70;99.90;;;;;;5023184;28;20041;-83
2024/01/27 02:52:21;;;;;;;23.17;16.52;;;2.70;99.90;;;;;;5030029;28;20042;-83
2024/01/27 02:54:47;;;;;;;20.65;17.67;;;2.80;99.90;;;;;;5061319;28;20090;-82
2024/01/27 02:57:13;;;;;;;27.92;17.50;;;2.70;99.90;;;;;;5032313;28;20072;-82
2024/01/27 02:59:39;;;;;;;29.40;17.75;;;2.80;99.90;;;;;;5045716;28;20181;-82
2024/01/27 03:02:08;;;;;;;21.73;16.90;;;2.80;99.90;;;;;;5033556;28;20045;-82
2024/01/27 03:04:33;;;;;;;26.05;18.00;;;2.80;99.90;;;;;;5031221;28;20047;-82
2024/01/27 03:06:59;;;;;;;30.00;17.00;;;2.90;99.90;;;;;;5047242;28;20044;-82
2024/01/27 03:09:25;;;;;;;1999.90;999.90;;;2.90;99.90;;;;;;5050747;28;20070;-82
2024/01/27 03:11:50;;;;;;;1999.90;999.90;;;2.90;99.90;;;;;;5046454;28;20287;-82
2024/01/27 03:14:16;;;;;;;1999.90;999.90;;;3.00;99.90;;;;;;5043585;28;20041;-82
2024/01/27 03:16:44;;;;;;;1999.90;999.90;;;2.90;99.90;;;;;;5031611;28;20492;-82
2024/01/27 03:19:10;;;;;;;1999.90;999.90;;;3.10;99.90;;;;;;5049533;28;20127;-82
2024/01/27 03:21:35;;;;;;;1999.90;999.90;;;3.10;99.90;;;;;;5022018;28;20136;-82
2024/01/27 03:24:01;;;;;;;1999.90;999.90;;;3.20;99.90;;;;;;5033833;28;20078;-82
2024/01/27 03:26:27;;;;;;;1999.90;999.90;;;3.30;99.90;;;;;;5049119;28;20036;-82
2024/01/27 03:28:52;;;;;;;1999.90;999.90;;;3.30;99.90;;;;;;5065584;28;20041;-82
2024/01/27 03:31:18;;;;;;;1999.90;999.90;;;3.30;99.90;;;;;;5050665;28;20040;-82
2024/01/27 03:33:44;;;;;;;1999.90;999.90;;;3.20;99.90;;;;;;5048612;28;20037;-82
2024/01/27 03:36:13;;;;;;;1999.90;999.90;;;3.10;99.90;;;;;;5050040;28;20111;-82
2024/01/27 03:38:40;;;;;;;1999.90;999.90;;;3.10;99.90;;;;;;5028129;28;20489;-82
2024/01/27 03:41:06;;;;;;;1999.90;999.90;;;3.00;99.90;;;;;;5033022;28;20120;-83
2024/01/27 03:43:33;;;;;;;1999.90;999.90;;;2.90;99.90;;;;;;5049628;28;20127;-82
2024/01/27 03:45:58;;;;;;;1999.90;999.90;;;2.90;99.90;;;;;;5053186;28;20169;-82
2024/01/27 03:48:24;;;;;;;1999.90;999.90;;;2.90;99.90;;;;;;5046208;28;20509;-82
2024/01/27 03:50:50;;;;;;;1999.90;999.90;;;2.90;99.90;;;;;;5067329;28;20040;-82
2024/01/27 03:53:15;;;;;;;1999.90;999.90;;;2.90;99.90;;;;;;5053877;28;20040;-83
2024/01/27 03:55:41;;;;;;;1999.90;999.90;;;2.90;99.90;;;;;;5071077;28;20064;-83
2024/01/27 03:58:07;;;;;;;1999.90;999.90;;;2.90;99.90;;;;;;5054017;28;20115;-82
2024/01/27 04:00:33;;;;;;;1999.90;999.90;;;2.80;99.90;;;;;;5042285;28;20045;-82
2024/01/27 04:03:02;;;;;;;1999.90;999.90;;;2.80;99.90;;;;;;5033621;28;20393;-83
2024/01/27 04:05:29;;;;;;;1999.90;999.90;;;2.80;99.90;;;;;;5054124;28;20083;-82
2024/01/27 04:07:55;;;;;;;1999.90;999.90;;;2.70;99.90;;;;;;5052642;28;20048;-82
2024/01/27 04:10:22;;;;;;;1999.90;999.90;;;2.80;99.90;;;;;;5050585;28;20043;-83
2024/01/27 04:12:47;;;;;;;1999.90;999.90;;;2.80;99.90;;;;;;5051810;28;20041;-82
2024/01/27 04:15:13;;;;;;;1999.90;999.90;;;2.80;99.90;;;;;;5053822;28;20036;-82
2024/01/27 04:17:40;;;;;;;1999.90;999.90;;;2.80;99.90;;;;;;5035492;28;20044;-82
2024/01/27 04:20:06;;;;;;;1999.90;999.90;;;2.90;99.90;;;;;;5029598;28;20102;-82
2024/01/27 04:22:33;;;;;;;1999.90;999.90;;;2.90;99.90;;;;;;5065507;28;20057;-82
2024/01/27 04:24:59;;;;;;;1999.90;999.90;;;3.00;99.90;;;;;;5053231;28;20040;-82
2024/01/27 04:27:26;;;;;;;1999.90;999.90;;;3.00;99.90;;;;;;5053329;28;20045;-82
2024/01/27 04:29:52;;;;;;;1999.90;999.90;;;3.00;99.90;;;;;;5030317;28;20079;-82
2024/01/27 04:32:18;;;;;;;1999.90;999.90;;;2.90;99.90;;;;;;5044902;28;20484;-83
2024/01/27 04:34:43;;;;;;;1999.90;999.90;;;3.00;99.90;;;;;;5050719;28;20552;-82
2024/01/27 04:37:09;;;;;;;1999.90;999.90;;;2.90;99.90;;;;;;5035194;28;20044;-82
2024/01/27 04:39:34;;;;;;;1999.90;999.90;;;2.90;99.90;;;;;;5049878;28;20076;-82
2024/01/27 04:42:01;;;;;;;1999.90;999.90;;;2.90;99.90;;;;;;5052962;28;20036;-82
2024/01/27 04:44:27;;;;;;;1999.90;999.90;;;2.90;99.90;;;;;;5035685;28;20072;-82
2024/01/27 04:46:52;;;;;;;1999.90;999.90;;;2.90;99.90;;;;;;5052741;28;20075;-82
2024/01/27 04:49:18;;;;;;;1999.90;999.90;;;2.90;99.90;;;;;;5026131;28;20067;-82
2024/01/27 04:51:44;;;;;;;1999.90;999.90;;;2.90;99.90;;;;;;5065710;28;20488;-82
2024/01/27 04:54:10;;;;;;;1999.90;999.90;;;2.90;99.90;;;;;;5049573;28;20091;-82
2024/01/27 04:56:36;;;;;;;1999.90;999.90;;;2.80;99.90;;;;;;5052789;28;20040;-82
2024/01/27 04:59:02;;;;;;;1999.90;999.90;;;2.80;99.90;;;;;;5050240;28;20078;-82
2024/01/27 05:01:28;;;;;;;1999.90;999.90;;;2.70;99.90;;;;;;5051833;28;20596;-82
2024/01/27 05:03:54;;;;;;;1999.90;999.90;;;2.70;99.90;;;;;;5034771;28;20127;-82
2024/01/27 05:06:19;;;;;;;1999.90;999.90;;;2.60;99.90;;;;;;5036262;28;20455;-82
2024/01/27 05:08:45;;;;;;;1999.90;999.90;;;2.70;99.90;;;;;;5033974;28;20105;-82
2024/01/27 05:11:11;;;;;;;1999.90;999.90;;;2.60;99.90;;;;;;5031584;28;20037;-83
2024/01/27 05:13:37;;;;;;;1999.90;999.90;;;2.60;99.90;;;;;;5035652;28;20046;-82
2024/01/27 05:16:03;;;;;;;1999.90;999.90;;;2.50;99.90;;;;;;5035967;28;20080;-83
2024/01/27 05:18:29;;;;;;;1999.90;999.90;;;2.50;99.90;;;;;;5069352;28;20419;-82
2024/01/27 05:20:55;;;;;;;1999.90;999.90;;;2.60;99.90;;;;;;5034870;28;20484;-82
2024/01/27 05:23:20;;;;;;;1999.90;999.90;;;2.50;99.90;;;;;;5035228;28;20119;-83
2024/01/27 05:25:46;;;;;;;1999.90;999.90;;;2.60;99.90;;;;;;5069936;28;20135;-82
2024/01/27 05:28:11;;;;;;;1999.90;999.90;;;2.60;99.90;;;;;;5032107;28;20048;-83
2024/01/27 05:30:37;;;;;;;1999.90;999.90;;;2.60;99.90;;;;;;5034160;28;20044;-83
2024/01/27 05:33:03;;;;;;;1999.90;999.90;;;2.60;99.90;;;;;;5033832;28;20527;-82
2024/01/27 05:35:29;;;;;;;1999.90;999.90;;;2.60;99.90;;;;;;5051507;28;20039;-82
2024/01/27 05:37:56;;;;;;;1999.90;999.90;;;2.60;99.90;;;;;;5035460;28;20123;-82
2024/01/27 05:40:21;;;;;;;1999.90;999.90;;;2.60;99.90;;;;;;5030443;28;20044;-83
2024/01/27 05:42:47;;;;;;;1999.90;999.90;;;2.60;99.90;;;;;;5029779;28;20043;-82
2024/01/27 05:45:13;;;;;;;1999.90;999.90;;;2.60;99.90;;;;;;5042868;28;20109;-83
2024/01/27 05:47:39;;;;;;;1999.90;999.90;;;2.60;99.90;;;;;;5033487;28;20060;-82
2024/01/27 05:50:07;;;;;;;1999.90;999.90;;;2.60;99.90;;;;;;5029765;28;20058;-82
2024/01/27 05:52:33;;;;;;;1999.90;999.90;;;2.60;99.90;;;;;;5045645;28;20048;-82
2024/01/27 05:54:59;;;;;;;1999.90;999.90;;;2.60;99.90;;;;;;5029468;28;20219;-82
2024/01/27 05:57:24;;;;;;;1999.90;999.90;;;2.60;99.90;;;;;;5047596;28;20798;-82
2024/01/27 05:59:50;;;;;;;1999.90;999.90;;;2.60;99.90;;;;;;5044170;28;20041;-82
2024/01/27 06:02:17;;;;;;;1999.90;999.90;;;2.60;99.90;;;;;;5030644;28;20110;-82
2024/01/27 06:04:43;;;;;;;1999.90;999.90;;;2.60;99.90;;;;;;5066273;28;20043;-82
2024/01/27 06:07:09;;;;;;;1999.90;999.90;;;2.60;99.90;;;;;;5051165;28;20040;-82
2024/01/27 06:09:36;;;;;;;1999.90;999.90;;;2.60;99.90;;;;;;5046730;28;20087;-82
2024/01/27 06:12:02;;;;;;;1999.90;999.90;;;2.50;99.90;;;;;;5049218;28;20052;-82
2024/01/27 06:14:28;;;;;;;1999.90;999.90;;;2.50;99.90;;;;;;5022422;28;20424;-82
2024/01/27 06:16:53;;;;;;;1999.90;999.90;;;2.40;99.90;;;;;;5024668;28;20055;-82
2024/01/27 06:19:19;;;;;;;1999.90;999.90;;;2.40;99.90;;;;;;5033355;28;20144;-83
2024/01/27 06:21:44;;;;;;;1999.90;999.90;;;2.40;99.90;;;;;;5050506;28;20044;-82
2024/01/27 06:24:10;;;;;;;1999.90;999.90;;;2.40;99.90;;;;;;5046674;28;20040;-83
2024/01/27 06:26:36;;;;;;;1999.90;999.90;;;2.50;99.90;;;;;;5029701;28;20488;-82
2024/01/27 06:29:02;;;;;;;1999.90;999.90;;;2.40;99.90;;;;;;5050462;28;20105;-83
2024/01/27 06:31:28;;;;;;;1999.90;999.90;;;2.40;99.90;;;;;;5034754;28;20045;-83
2024/01/27 06:33:53;;;;;;;1999.90;999.90;;;2.40;99.90;;;;;;5064987;28;20522;-82
2024/01/27 06:36:22;;;;;;;1999.90;999.90;;;2.40;99.90;;;;;;5023254;28;20112;-82
2024/01/27 06:38:47;;;;;;;1999.90;999.90;;;2.40;99.90;;;;;;5026766;28;20040;-83
2024/01/27 06:41:13;;;;;;;1999.90;999.90;;;2.30;99.90;;;;;;5034084;28;20107;-82
2024/01/27 06:43:39;;;;;;;1999.90;999.90;;;2.30;99.90;;;;;;5034225;28;20044;-82
2024/01/27 06:46:05;;;;;;;1999.90;999.90;;;2.20;99.90;;;;;;5026531;28;20383;-82
2024/01/27 06:48:30;;;;;;;1999.90;999.90;;;2.20;99.90;;;;;;5041615;28;20052;-83
2024/01/27 06:50:56;;;;;;;1999.90;999.90;;;2.20;99.90;;;;;;5034073;28;20086;-82
2024/01/27 06:53:22;;;;;;;1999.90;999.90;;;2.20;99.90;;;;;;5062306;28;20078;-82
2024/01/27 06:55:47;;;;;;;1999.90;999.90;;;2.20;99.90;;;;;;5048501;28;20041;-82
2024/01/27 06:58:13;;;;;;;1999.90;999.90;;;2.20;99.90;;;;;;5068639;28;20405;-82
2024/01/27 07:00:39;;;;;;;1999.90;999.90;;;2.20;99.90;;;;;;5033481;28;20068;-82
2024/01/27 07:03:05;;;;;;;1999.90;999.90;;;2.10;99.90;;;;;;5030623;28;20095;-82
2024/01/27 07:05:33;;;;;;;1999.90;999.90;;;2.00;99.90;;;;;;5034472;28;20040;-82
2024/01/27 07:07:58;;;;;;;1999.90;999.90;;;2.00;99.90;;;;;;5065486;28;20037;-82
2024/01/27 07:10:24;;;;;;;1999.90;999.90;;;2.00;99.90;;;;;;5023349;28;20028;-83
2024/01/27 07:12:49;;;;;;;1999.90;999.90;;;1.90;99.90;;;;;;5033609;28;20049;-83
2024/01/27 07:15:15;;;;;;;1999.90;999.90;;;1.90;99.90;;;;;;5050195;28;20098;-82
2024/01/27 07:17:41;;;;;;;1999.90;999.90;;;1.90;99.90;;;;;;5048166;28;20036;-82
2024/01/27 07:20:08;;;;;;;1999.90;999.90;;;1.90;99.90;;;;;;5030612;28;20106;-82
2024/01/27 07:22:33;;;;;;;1999.90;999.90;;;1.90;99.90;;;;;;5026524;28;20499;-82
2024/01/27 07:25:00;;;;;;;1999.90;999.90;;;1.90;99.90;;;;;;5067088;28;20076;-82
2024/01/27 07:27:25;;;;;;;1999.90;999.90;;;1.90;99.90;;;;;;5028251;28;20515;-82
2024/01/27 07:29:51;;;;;;;1999.90;999.90;;;1.90;99.90;;;;;;5028633;28;20081;-83
2024/01/27 07:32:17;;;;;;;1999.90;999.90;;;1.80;99.90;;;;;;5033361;28;20054;-82
2024/01/27 07:34:43;;;;;;;1999.90;999.90;;;1.80;99.90;;;;;;5032974;28;20067;-82
2024/01/27 07:37:09;;;;;;;1999.90;999.90;;;1.80;99.90;;;;;;5033472;28;20457;-82
2024/01/27 07:39:35;;;;;;;1999.90;999.90;;;1.80;99.90;;;;;;5049605;28;20029;-82
2024/01/27 07:42:01;;;;;;;1999.90;999.90;;;1.80;99.90;;;;;;5050408;28;20052;-82
2024/01/27 07:44:27;;;;;;;1999.90;999.90;;;1.80;99.90;;;;;;5067843;28;20515;-82
2024/01/27 07:46:52;;;;;;;1999.90;999.90;;;1.80;99.90;;;;;;5030521;28;20040;-82
2024/01/27 07:49:18;;;;;;;1999.90;999.90;;;1.80;99.90;;;;;;5047478;28;20063;-82
2024/01/27 07:51:44;;;;;;;1999.90;999.90;;;1.80;99.90;;;;;;5061042;28;20106;-83
2024/01/27 07:54:10;;;;;;;1999.90;999.90;;;1.80;99.90;;;;;;5046124;28;20083;-82
2024/01/27 07:56:37;;;;;;;1999.90;999.90;;;1.90;99.90;;;;;;5049489;28;20044;-83
2024/01/27 07:59:03;;;;;;;1999.90;999.90;;;1.90;99.90;;;;;;5049749;28;20084;-83
2024/01/27 08:01:29;;;;;;;1505.10;754.33;;;2.10;99.90;;;;;;5033043;28;20154;-82
2024/01/27 08:03:54;;;;;;;27.63;17.50;;;2.20;99.90;;;;;;5061732;28;20060;-82
2024/01/27 08:06:29;;;;;;;30.65;16.50;;;2.20;99.90;;;;;;5031538;28;20155;-83
2024/01/27 08:08:55;;;;;;;23.65;15.85;;;2.30;99.90;;;;;;5030368;28;20037;-83
2024/01/27 08:11:21;;;;;;;25.50;15.52;;;2.40;99.90;;;;;;5047727;28;20106;-82
2024/01/27 08:13:46;;;;;;;28.80;16.58;;;2.50;99.90;;;;;;5050226;28;20068;-83
2024/01/27 08:16:13;;;;;;;29.77;17.63;;;2.50;99.90;;;;;;5031179;28;20436;-83
2024/01/27 08:18:42;;;;;;;30.13;18.88;;;2.60;99.90;;;;;;5033091;28;20493;-82
2024/01/27 08:21:08;;;;;;;29.13;18.63;;;2.60;99.90;;;;;;5043370;28;20041;-83
2024/01/27 08:23:33;;;;;;;28.02;19.83;;;2.70;99.90;;;;;;5031540;28;20040;-82
2024/01/27 08:25:59;;;;;;;32.17;20.38;;;2.80;99.90;;;;;;5069113;28;20451;-82
2024/01/27 08:28:25;;;;;;;33.65;19.58;;;2.80;99.90;;;;;;5037064;28;20072;-82
2024/01/27 08:30:51;;;;;;;27.75;20.80;;;2.90;99.90;;;;;;5034193;28;20524;-82
2024/01/27 08:33:16;;;;;;;29.90;20.23;;;2.90;99.90;;;;;;5048101;28;20042;-82
2024/01/27 08:35:42;;;;;;;26.65;20.20;;;3.10;99.90;;;;;;5051430;28;20040;-82
2024/01/27 08:38:09;;;;;;;30.60;20.80;;;3.10;99.90;;;;;;5049766;28;20040;-82
2024/01/27 08:40:35;;;;;;;23.58;20.92;;;3.40;99.90;;;;;;5052106;28;20036;-82
2024/01/27 08:43:01;;;;;;;30.02;21.92;;;3.70;99.90;;;;;;5033297;28;20036;-83
2024/01/27 08:45:27;;;;;;;24.45;20.63;;;3.80;99.90;;;;;;5051717;28;20044;-83
2024/01/27 08:47:53;;;;;;;30.92;21.27;;;4.00;99.90;;;;;;5050555;28;20033;-83
2024/01/27 08:50:18;;;;;;;24.75;21.67;;;4.20;99.90;;;;;;5066491;28;20056;-82
2024/01/27 08:52:45;;;;;;;29.40;20.30;;;4.40;99.90;;;;;;5052004;28;20048;-82
2024/01/27 08:55:11;;;;;;;30.40;19.67;;;4.50;99.90;;;;;;5035491;28;20408;-82
2024/01/27 08:57:37;;;;;;;27.05;20.35;;;4.60;99.90;;;;;;5035811;28;20052;-82
2024/01/27 09:00:04;;;;;;;27.38;20.83;;;4.60;99.90;;;;;;5032869;28;20033;-83
2024/01/27 09:02:29;;;;;;;28.90;20.85;;;4.70;99.90;;;;;;5032584;28;20091;-82
2024/01/27 09:04:56;;;;;;;23.85;21.35;;;4.80;99.90;;;;;;5061729;28;20463;-82
2024/01/27 09:07:21;;;;;;;30.23;23.65;;;4.90;99.90;;;;;;5034666;28;20119;-82
2024/01/27 09:09:47;;;;;;;29.38;24.92;;;5.00;99.90;;;;;;5052126;28;20120;-82
2024/01/27 09:12:13;;;;;;;28.77;23.63;;;5.00;99.90;;;;;;5027527;28;20515;-83
2024/01/27 09:14:38;;;;;;;29.48;23.10;;;5.10;99.90;;;;;;5041548;28;20119;-82
2024/01/27 09:17:04;;;;;;;26.30;23.17;;;5.10;99.90;;;;;;5046838;28;20045;-82
2024/01/27 09:19:29;;;;;;;28.10;20.27;;;5.20;99.90;;;;;;5039204;28;20468;-81
2024/01/27 09:21:55;;;;;;;28.90;22.17;;;5.30;99.90;;;;;;5031558;28;20051;-82
2024/01/27 09:24:21;;;;;;;30.60;21.65;;;5.30;99.90;;;;;;5066250;28;20050;-82
2024/01/27 09:26:46;;;;;;;25.20;21.33;;;5.40;99.90;;;;;;5049333;28;20068;-82
2024/01/27 09:29:12;;;;;;;31.48;28.38;;;5.50;99.90;;;;;;5047713;28;20449;-81
2024/01/27 09:31:38;;;;;;;25.02;18.42;;;5.50;99.90;;;;;;5045094;28;20033;-82
2024/01/27 09:34:03;;;;;;;21.42;17.30;;;5.60;99.90;;;;;;5024578;28;20075;-81
2024/01/27 09:36:29;;;;;;;27.60;16.92;;;5.60;99.90;;;;;;5030228;28;20072;-82
2024/01/27 09:38:55;;;;;;;26.08;16.70;;;5.70;99.90;;;;;;5048373;28;20044;-82
2024/01/27 09:41:21;;;;;;;24.27;16.98;;;5.80;99.90;;;;;;5065231;28;20039;-82
2024/01/27 09:43:47;;;;;;;34.60;28.48;;;5.90;99.90;;;;;;5052150;28;20032;-82
2024/01/27 09:46:17;;;;;;;23.70;15.93;;;5.90;99.90;;;;;;5047589;28;20048;-82
2024/01/27 09:48:43;;;;;;;23.65;17.27;;;6.00;99.90;;;;;;5065978;28;20097;-82
2024/01/27 09:51:10;;;;;;;25.08;15.80;;;6.10;99.90;;;;;;5045789;28;20048;-81
2024/01/27 09:53:36;;;;;;;21.67;14.88;;;6.20;99.90;;;;;;5030422;28;20047;-82
2024/01/27 09:56:03;;;;;;;17.23;14.13;;;6.30;99.90;;;;;;5026799;28;20453;-81
2024/01/27 09:58:30;;;;;;;24.02;16.92;;;6.40;99.90;;;;;;5035167;28;20067;-81
2024/01/27 10:00:57;;;;;;;21.30;14.60;;;6.50;99.90;;;;;;5049762;28;20090;-81
2024/01/27 10:03:27;;;;;;;20.00;15.43;;;6.60;99.90;;;;;;5066845;28;20530;-82
2024/01/27 10:05:57;;;;;;;17.80;14.10;;;6.80;99.90;;;;;;5069455;28;20086;-82
2024/01/27 10:08:23;;;;;;;20.05;15.13;;;6.90;99.90;;;;;;5067589;28;20127;-82
2024/01/27 10:10:57;;;;;;;16.75;14.40;;;7.00;99.90;;;;;;5033402;28;20051;-82
2024/01/27 10:13:26;;;;;;;19.60;14.43;;;7.10;99.90;;;;;;5032695;28;20155;-82
2024/01/27 10:16:03;;;;;;;22.52;14.55;;;7.20;99.90;;;;;;5042106;28;20404;-81
2024/01/27 10:18:29;;;;;;;20.23;15.10;;;7.30;99.90;;;;;;5047869;28;20060;-82
2024/01/27 10:20:54;;;;;;;17.88;14.20;;;7.40;99.90;;;;;;5031263;28;20408;-82
2024/01/27 10:23:20;;;;;;;23.55;13.90;;;7.50;99.90;;;;;;5050662;28;20051;-82
2024/01/27 10:25:46;;;;;;;21.55;13.55;;;7.60;99.90;;;;;;5033854;28;20075;-82
2024/01/27 10:28:11;;;;;;;16.70;13.43;;;7.60;99.90;;;;;;5045083;28;20040;-81
2024/01/27 10:30:37;;;;;;;18.58;13.55;;;7.70;99.90;;;;;;5062411;28;20029;-81
2024/01/27 10:33:03;;;;;;;20.73;13.57;;;7.70;99.90;;;;;;5029165;28;20043;-82
2024/01/27 10:35:29;;;;;;;21.45;14.40;;;7.80;99.90;;;;;;5056083;28;20041;-81
2024/01/27 10:37:56;;;;;;;18.58;13.63;;;7.90;99.90;;;;;;5046396;28;20056;-82
2024/01/27 10:40:26;;;;;;;21.45;13.52;;;7.90;99.90;;;;;;5047859;28;20036;-82
2024/01/27 10:43:05;;;;;;;22.25;13.88;;;8.10;99.90;;;;;;5034296;28;20090;-82
2024/01/27 10:45:38;;;;;;;18.63;13.85;;;8.10;99.90;;;;;;5033700;28;20453;-82
2024/01/27 10:48:05;;;;;;;18.10;13.00;;;8.10;99.90;;;;;;5028071;28;20037;-81
2024/01/27 10:50:36;;;;;;;21.58;13.88;;;8.10;99.90;;;;;;5025545;28;20045;-82
2024/01/27 10:53:04;;;;;;;22.55;13.38;;;8.20;99.90;;;;;;5039800;28;20040;-81
2024/01/27 10:55:31;;;;;;;23.77;14.25;;;8.20;99.90;;;;;;5046763;28;20040;-81
2024/01/27 10:58:01;;;;;;;16.63;13.55;;;8.40;99.90;;;;;;5051051;28;20040;-82
2024/01/27 11:00:28;;;;;;;16.95;12.75;;;8.50;99.90;;;;;;5049849;28;20139;-82
2024/01/27 11:02:57;;;;;;;18.48;12.95;;;8.60;99.90;;;;;;5050358;28;20083;-82
2024/01/27 11:05:24;;;;;;;15.73;12.30;;;8.70;99.90;;;;;;5049438;28;20101;-82
2024/01/27 11:07:51;;;;;;;22.45;12.75;;;8.80;99.90;;;;;;5044444;28;20045;-82
2024/01/27 11:10:17;;;;;;;17.58;11.65;;;8.90;99.90;;;;;;5050918;28;20048;-82
2024/01/27 11:12:44;;;;;;;17.92;11.90;;;9.00;99.90;;;;;;5067759;28;20040;-82
2024/01/27 11:15:09;;;;;;;19.63;11.93;;;9.10;99.90;;;;;;5068075;28;20130;-82
2024/01/27 11:17:42;;;;;;;21.77;11.80;;;9.20;99.90;;;;;;5041078;28;20481;-81
2024/01/27 11:20:11;;;;;;;17.70;11.60;;;9.30;99.90;;;;;;5039536;28;20130;-82
2024/01/27 11:22:37;;;;;;;16.15;11.07;;;9.30;99.90;;;;;;5039504;28;20049;-81
2024/01/27 11:25:13;;;;;;;21.48;12.55;;;9.40;99.90;;;;;;5019221;28;20048;-82
2024/01/27 11:27:40;;;;;;;17.25;10.95;;;9.40;99.90;;;;;;5044387;28;20493;-81
2024/01/27 11:30:12;;;;;;;17.10;10.57;;;9.30;99.90;;;;;;5018299;28;20438;-82
2024/01/27 11:32:37;;;;;;;19.95;10.35;;;9.40;99.90;;;;;;5033302;28;20037;-82
2024/01/27 11:35:05;;;;;;;18.27;10.55;;;9.40;99.90;;;;;;5014400;28;20071;-82
2024/01/27 11:37:31;;;;;;;21.17;10.85;;;9.40;99.90;;;;;;5038681;28;20393;-82
2024/01/27 11:40:07;;;;;;;17.23;10.13;;;9.40;99.90;;;;;;5014569;28;20045;-82
2024/01/27 11:42:32;;;;;;;19.00;10.25;;;9.60;99.90;;;;;;5033301;28;20049;-82
2024/01/27 11:44:58;;;;;;;15.93;10.52;;;9.70;99.90;;;;;;5045186;28;20096;-82
2024/01/27 11:47:26;;;;;;;17.80;10.00;;;9.80;99.90;;;;;;5022124;28;20041;-82
2024/01/27 11:49:56;;;;;;;17.77;10.30;;;9.70;99.90;;;;;;5029798;28;20492;-81
2024/01/27 11:52:23;;;;;;;18.83;10.00;;;9.80;99.90;;;;;;5012480;28;20052;-82
2024/01/27 11:55:00;;;;;;;22.20;9.90;;;9.90;99.90;;;;;;5015890;28;20624;-82
2024/01/27 11:57:27;;;;;;;20.17;10.13;;;9.80;99.90;;;;;;5035499;28;20048;-82
2024/01/27 11:59:53;;;;;;;20.20;9.85;;;9.80;99.90;;;;;;5032470;28;20039;-81
2024/01/27 12:02:19;;;;;;;18.15;10.40;;;9.90;99.90;;;;;;5037357;28;20040;-82
2024/01/27 12:04:44;;;;;;;17.17;9.10;;;9.90;99.90;;;;;;5043472;28;20404;-81
2024/01/27 12:07:10;;;;;;;18.17;10.25;;;9.90;99.90;;;;;;5040122;28;20409;-82
2024/01/27 12:09:37;;;;;;;20.10;9.57;;;10.00;99.90;;;;;;5028289;28;20132;-81
2024/01/27 12:12:04;;;;;;;17.52;9.82;;;10.00;99.90;;;;;;5035762;28;20045;-81
2024/01/27 12:14:46;;;;;;;15.07;9.52;;;10.00;99.90;;;;;;5027628;28;20037;-82
2024/01/27 12:17:12;;;;;;;17.23;10.13;;;10.00;99.90;;;;;;5014378;28;20121;-82
2024/01/27 12:19:38;;;;;;;16.92;8.98;;;10.00;99.90;;;;;;5032331;28;20132;-82
2024/01/27 12:22:04;;;;;;;19.65;10.05;;;10.00;99.90;;;;;;5025827;28;20132;-81